Time;durP1;ratioP1;P1;durP2;ratioP2;P2;SDS_P1;SDS_P2;PMS_P1;PMS_P2;Temp;Humidity;BMP_temperature;BMP_pressure;BME280_temperature;BME280_humidity;BME280_pressure;Samples;Min_cycle;Max_cycle;Signal;HPM_P1;HPM_P2
2022/08/31 00:05:57;;;;;;;2.17;1.33;;;16.40;99.90;;;;;;5052382;28;20234;-69
2022/08/31 00:08:24;;;;;;;3.58;1.20;;;16.40;99.90;;;;;;5055029;28;20253;-68
2022/08/31 00:10:50;;;;;;;1.90;1.35;;;16.40;99.90;;;;;;5054781;28;20212;-69
2022/08/31 00:13:16;;;;;;;2.35;0.98;;;16.40;99.90;;;;;;5057742;28;20282;-69
2022/08/31 00:15:42;;;;;;;1.85;1.33;;;16.40;99.90;;;;;;5055365;28;20211;-69
2022/08/31 00:18:08;;;;;;;4.63;1.70;;;16.40;99.90;;;;;;5055829;28;20176;-69
2022/08/31 00:20:34;;;;;;;2.25;1.45;;;16.30;99.90;;;;;;5063262;28;20211;-69
2022/08/31 00:23:05;;;;;;;3.75;1.48;;;16.30;99.90;;;;;;5063740;28;20747;-69
2022/08/31 00:25:33;;;;;;;2.45;1.38;;;16.30;99.90;;;;;;5059581;28;20219;-69
2022/08/31 00:27:58;;;;;;;2.55;1.33;;;16.10;99.90;;;;;;5063939;28;20207;-70
2022/08/31 00:30:24;;;;;;;4.72;1.30;;;16.10;99.90;;;;;;5063988;28;20203;-69
2022/08/31 00:32:49;;;;;;;4.32;2.20;;;16.10;99.90;;;;;;5062285;28;20186;-69
2022/08/31 00:35:15;;;;;;;2.67;1.63;;;16.10;99.90;;;;;;5060916;28;20290;-69
2022/08/31 00:37:40;;;;;;;3.33;1.52;;;16.10;99.90;;;;;;5067884;28;20206;-69
2022/08/31 00:40:07;;;;;;;2.42;1.30;;;16.10;99.90;;;;;;5060255;28;20215;-68
2022/08/31 00:42:32;;;;;;;2.58;1.60;;;16.00;99.90;;;;;;5059199;28;20171;-69
2022/08/31 00:44:58;;;;;;;2.97;1.23;;;16.00;99.90;;;;;;5064184;28;20213;-68
2022/08/31 00:47:24;;;;;;;2.88;1.30;;;16.00;99.90;;;;;;5063574;28;20207;-70
2022/08/31 00:49:50;;;;;;;2.03;1.30;;;15.90;99.90;;;;;;5061972;28;20219;-70
2022/08/31 00:52:21;;;;;;;3.22;1.60;;;15.90;99.90;;;;;;5060667;28;20208;-69
2022/08/31 00:54:53;;;;;;;3.17;1.58;;;15.90;99.90;;;;;;5065270;28;20222;-69
2022/08/31 00:57:19;;;;;;;3.85;1.48;;;15.90;99.90;;;;;;5064444;28;20176;-70
2022/08/31 00:59:47;;;;;;;2.38;1.30;;;15.90;99.90;;;;;;5069549;28;20189;-69
2022/08/31 01:02:14;;;;;;;3.83;1.52;;;15.90;99.90;;;;;;5061528;28;20721;-69
2022/08/31 01:04:39;;;;;;;2.70;1.17;;;15.90;99.90;;;;;;5065747;28;20246;-69
2022/08/31 01:07:07;;;;;;;2.45;1.40;;;15.90;99.90;;;;;;5059812;28;20245;-69
2022/08/31 01:09:38;;;;;;;2.65;1.30;;;15.90;99.90;;;;;;5061636;28;20183;-69
2022/08/31 01:12:06;;;;;;;3.28;1.20;;;15.80;99.90;;;;;;5063243;28;20224;-68
2022/08/31 01:14:32;;;;;;;1.52;1.20;;;15.80;99.90;;;;;;5063957;28;20199;-70
2022/08/31 01:16:58;;;;;;;3.85;1.60;;;15.80;99.90;;;;;;5060141;28;20200;-69
2022/08/31 01:19:31;;;;;;;4.18;1.52;;;15.80;99.90;;;;;;5060945;28;20588;-69
2022/08/31 01:22:02;;;;;;;2.67;1.45;;;15.80;99.90;;;;;;5060921;28;20218;-69
2022/08/31 01:24:31;;;;;;;2.83;1.55;;;15.80;99.90;;;;;;5057932;28;20263;-69
2022/08/31 01:27:02;;;;;;;4.38;1.30;;;15.80;99.90;;;;;;5062583;28;20211;-69
2022/08/31 01:29:28;;;;;;;1.77;1.23;;;15.90;99.90;;;;;;5065360;28;20218;-68
2022/08/31 01:31:54;;;;;;;4.05;1.67;;;15.90;99.90;;;;;;5056563;28;20298;-69
2022/08/31 01:34:19;;;;;;;3.40;1.20;;;16.00;99.90;;;;;;5058385;28;20326;-69
2022/08/31 01:36:47;;;;;;;2.00;1.20;;;15.90;99.90;;;;;;5059983;28;20291;-69
2022/08/31 01:39:13;;;;;;;3.58;1.35;;;16.00;99.90;;;;;;5061162;28;20188;-69
2022/08/31 01:41:42;;;;;;;3.08;1.63;;;15.90;99.90;;;;;;5053511;28;20222;-69
2022/08/31 01:44:10;;;;;;;2.13;1.40;;;15.90;99.90;;;;;;5055730;28;20590;-70
2022/08/31 01:46:36;;;;;;;4.57;1.80;;;15.90;99.90;;;;;;5063983;28;20704;-69
2022/08/31 01:49:02;;;;;;;3.45;1.60;;;15.90;99.90;;;;;;5057158;28;20226;-69
2022/08/31 01:51:27;;;;;;;2.35;1.60;;;16.00;99.90;;;;;;5055258;28;20299;-70
2022/08/31 01:53:53;;;;;;;2.83;1.05;;;16.00;99.90;;;;;;5060463;28;20604;-68
2022/08/31 01:56:26;;;;;;;3.50;1.30;;;16.00;99.90;;;;;;5060069;28;20234;-69
2022/08/31 01:58:52;;;;;;;3.75;1.38;;;15.90;99.90;;;;;;5052239;28;20212;-69
2022/08/31 02:01:20;;;;;;;3.55;1.33;;;16.00;99.90;;;;;;5056075;28;20768;-70
2022/08/31 02:06:17;;;;;;;11.30;5.10;;;16.00;99.90;;;;;;5073621;22;20231;-71
2022/08/31 02:08:42;;;;;;;3.75;1.73;;;16.00;99.90;;;;;;5055949;28;20568;-71
2022/08/31 02:11:08;;;;;;;4.63;3.20;;;16.10;99.90;;;;;;5056333;28;20207;-71
2022/08/31 02:13:34;;;;;;;2.90;1.42;;;16.10;99.90;;;;;;5057001;28;20202;-71
2022/08/31 02:16:00;;;;;;;2.22;1.17;;;16.00;99.90;;;;;;5060697;28;20214;-71
2022/08/31 02:18:27;;;;;;;5.68;2.55;;;16.10;99.90;;;;;;5061740;28;20701;-71
2022/08/31 02:20:53;;;;;;;4.47;2.58;;;16.10;99.90;;;;;;5055769;28;20191;-71
2022/08/31 02:23:18;;;;;;;3.70;1.40;;;16.10;99.90;;;;;;5047786;28;20257;-71
2022/08/31 02:25:44;;;;;;;9.82;5.82;;;16.10;99.90;;;;;;5054376;28;20215;-71
2022/08/31 02:28:12;;;;;;;9.13;4.15;;;16.10;99.90;;;;;;5059269;28;20214;-71
2022/08/31 02:30:40;;;;;;;3.45;2.13;;;16.10;99.90;;;;;;5058372;28;20712;-71
2022/08/31 02:33:06;;;;;;;2.30;1.60;;;16.00;99.90;;;;;;5055496;28;20179;-71
2022/08/31 02:35:31;;;;;;;3.55;2.05;;;16.10;99.90;;;;;;5055367;28;20723;-70
2022/08/31 02:37:57;;;;;;;3.33;1.60;;;16.00;99.90;;;;;;5059347;28;20207;-71
2022/08/31 02:40:22;;;;;;;3.95;1.35;;;16.10;99.90;;;;;;5055508;28;20209;-71
2022/08/31 02:42:49;;;;;;;4.47;1.70;;;16.00;99.90;;;;;;5053911;28;20298;-71
2022/08/31 02:45:14;;;;;;;3.80;1.48;;;15.90;99.90;;;;;;5055890;28;20200;-71
2022/08/31 02:47:40;;;;;;;2.47;1.50;;;15.80;99.90;;;;;;5060827;28;20658;-71
2022/08/31 02:50:06;;;;;;;1.95;1.48;;;15.80;99.90;;;;;;5053978;28;20269;-71
2022/08/31 02:52:32;;;;;;;2.53;1.65;;;15.80;99.90;;;;;;5055124;28;20203;-71
2022/08/31 02:54:58;;;;;;;2.70;1.55;;;15.80;99.90;;;;;;5057224;28;20715;-70
2022/08/31 02:57:24;;;;;;;1.55;1.27;;;15.80;99.90;;;;;;5057880;28;20234;-71
2022/08/31 02:59:49;;;;;;;2.40;1.67;;;15.80;99.90;;;;;;5055040;28;20187;-72
2022/08/31 03:02:16;;;;;;;5.50;1.90;;;15.80;99.90;;;;;;5058174;28;20577;-71
2022/08/31 03:04:42;;;;;;;2.67;1.77;;;15.80;99.90;;;;;;5055021;28;20224;-71
2022/08/31 03:07:08;;;;;;;1.63;1.52;;;15.80;99.90;;;;;;5052929;28;20206;-73
2022/08/31 03:09:33;;;;;;;3.60;1.83;;;15.80;99.90;;;;;;5053105;28;20228;-72
2022/08/31 03:11:59;;;;;;;2.63;1.63;;;15.80;99.90;;;;;;5059945;28;20218;-72
2022/08/31 03:14:25;;;;;;;3.42;1.67;;;15.90;99.90;;;;;;5058575;28;20222;-72
2022/08/31 03:16:51;;;;;;;2.80;1.75;;;15.90;99.90;;;;;;5055762;28;20655;-71
2022/08/31 03:19:17;;;;;;;4.15;1.80;;;15.90;99.90;;;;;;5054932;28;20227;-73
2022/08/31 03:21:44;;;;;;;5.85;3.13;;;15.70;99.90;;;;;;5058821;28;20241;-73
2022/08/31 03:24:10;;;;;;;6.25;4.35;;;15.70;99.90;;;;;;5049129;28;20179;-71
2022/08/31 03:26:36;;;;;;;3.47;1.77;;;15.70;99.90;;;;;;5054370;28;20212;-70
2022/08/31 03:29:02;;;;;;;5.13;3.00;;;15.70;99.90;;;;;;5059595;28;20570;-71
2022/08/31 03:31:27;;;;;;;3.22;1.50;;;15.70;99.90;;;;;;5058140;28;20195;-72
2022/08/31 03:33:53;;;;;;;3.30;2.50;;;15.70;99.90;;;;;;5053855;28;20770;-71
2022/08/31 03:36:19;;;;;;;4.88;2.10;;;15.70;99.90;;;;;;5054120;28;20600;-72
2022/08/31 03:38:44;;;;;;;7.20;1.90;;;15.60;99.90;;;;;;5060452;28;20188;-73
2022/08/31 03:41:13;;;;;;;3.00;2.30;;;15.50;99.90;;;;;;5055898;28;20202;-72
2022/08/31 03:43:39;;;;;;;3.78;1.33;;;15.50;99.90;;;;;;5054673;28;20203;-72
2022/08/31 03:46:04;;;;;;;3.42;1.90;;;15.50;99.90;;;;;;5055976;28;20229;-72
2022/08/31 03:48:30;;;;;;;5.35;2.50;;;15.40;99.90;;;;;;5054334;28;20184;-72
2022/08/31 03:50:56;;;;;;;4.70;1.88;;;15.30;99.90;;;;;;5053041;28;20237;-72
2022/08/31 03:53:21;;;;;;;7.82;2.88;;;15.20;99.90;;;;;;5052022;28;20206;-71
2022/08/31 03:55:47;;;;;;;3.70;1.80;;;15.30;99.90;;;;;;5058929;28;20655;-72
2022/08/31 03:58:12;;;;;;;4.28;3.00;;;15.20;99.90;;;;;;5055701;28;20227;-72
2022/08/31 04:00:39;;;;;;;4.28;2.50;;;15.20;99.90;;;;;;5054278;28;20855;-71
2022/08/31 04:03:05;;;;;;;3.38;2.15;;;15.20;99.90;;;;;;5058026;28;20179;-72
2022/08/31 04:05:33;;;;;;;4.30;2.10;;;15.00;99.90;;;;;;5057473;28;20724;-71
2022/08/31 04:07:58;;;;;;;2.13;1.52;;;15.10;99.90;;;;;;5052600;28;20255;-73
2022/08/31 04:10:24;;;;;;;2.67;1.70;;;15.10;99.90;;;;;;5054227;28;20207;-71
2022/08/31 04:12:50;;;;;;;3.22;1.70;;;15.00;99.90;;;;;;5058499;28;20214;-72
2022/08/31 04:15:17;;;;;;;11.35;2.05;;;15.00;99.90;;;;;;5055356;28;20203;-73
2022/08/31 04:17:46;;;;;;;3.25;1.73;;;14.90;99.90;;;;;;5053196;28;20886;-72
2022/08/31 04:20:12;;;;;;;8.30;3.20;;;15.00;99.90;;;;;;5058340;28;20250;-72
2022/08/31 04:22:37;;;;;;;3.85;2.35;;;15.00;99.90;;;;;;5051309;28;20735;-72
2022/08/31 04:25:03;;;;;;;6.25;3.60;;;15.00;99.90;;;;;;5054613;28;20218;-72
2022/08/31 04:27:29;;;;;;;5.30;3.13;;;15.00;99.90;;;;;;5058144;28;20179;-72
2022/08/31 04:29:55;;;;;;;5.57;2.50;;;14.90;99.90;;;;;;5057248;28;20195;-71
2022/08/31 04:32:21;;;;;;;5.40;2.05;;;15.00;99.90;;;;;;5054568;28;20334;-72
2022/08/31 04:34:46;;;;;;;4.13;1.48;;;15.00;99.90;;;;;;5052622;28;20288;-70
2022/08/31 04:37:13;;;;;;;4.75;2.22;;;15.00;99.90;;;;;;5054761;28;20216;-72
2022/08/31 04:39:41;;;;;;;3.47;2.20;;;15.00;99.90;;;;;;5051263;28;20215;-72
2022/08/31 04:42:07;;;;;;;4.53;2.30;;;15.10;99.90;;;;;;5057371;28;20183;-71
2022/08/31 04:44:32;;;;;;;6.20;3.50;;;15.20;99.90;;;;;;5061591;28;20210;-72
2022/08/31 04:46:58;;;;;;;4.57;2.80;;;15.70;99.90;;;;;;5056739;28;20246;-72
2022/08/31 04:49:24;;;;;;;6.72;2.88;;;17.20;99.90;;;;;;5058721;28;20629;-71
2022/08/31 04:51:49;;;;;;;5.55;2.10;;;18.30;99.90;;;;;;5060469;28;20218;-72
2022/08/31 04:54:15;;;;;;;6.10;2.88;;;19.00;99.90;;;;;;5060890;28;20203;-72
2022/08/31 04:56:43;;;;;;;4.07;1.73;;;19.60;99.90;;;;;;5056906;28;20318;-72
2022/08/31 04:59:13;;;;;;;6.25;2.25;;;20.30;99.90;;;;;;5056805;28;20250;-73
2022/08/31 05:01:41;;;;;;;2.90;1.73;;;19.70;99.90;;;;;;5055213;28;20290;-71
2022/08/31 05:04:08;;;;;;;4.13;2.25;;;19.50;99.90;;;;;;5059339;28;20211;-71
2022/08/31 05:06:35;;;;;;;3.75;1.88;;;20.70;99.90;;;;;;5061652;28;20207;-72
2022/08/31 05:09:04;;;;;;;3.67;1.90;;;19.90;99.90;;;;;;5066336;28;20253;-73
2022/08/31 05:11:30;;;;;;;2.92;1.75;;;18.80;99.90;;;;;;5065886;28;20203;-72
2022/08/31 05:13:57;;;;;;;2.88;1.40;;;18.10;99.90;;;;;;5063919;28;20345;-72
2022/08/31 05:16:23;;;;;;;4.18;1.73;;;17.70;99.90;;;;;;5065239;28;20207;-72
2022/08/31 05:18:49;;;;;;;3.00;1.98;;;17.60;99.90;;;;;;5065153;28;20206;-72
2022/08/31 05:21:27;;;;;;;2.72;1.63;;;17.70;99.90;;;;;;5064091;28;20241;-72
2022/08/31 05:23:55;;;;;;;3.92;2.63;;;19.30;99.90;;;;;;5058214;28;20206;-71
2022/08/31 05:26:23;;;;;;;4.25;1.77;;;21.80;99.90;;;;;;5061551;28;20250;-72
2022/08/31 05:28:49;;;;;;;3.88;2.00;;;23.20;99.90;;;;;;5062797;28;20227;-73
2022/08/31 05:31:15;;;;;;;5.43;2.05;;;25.00;99.90;;;;;;5060758;28;20226;-72
2022/08/31 05:33:41;;;;;;;4.72;1.73;;;25.70;99.90;;;;;;5062318;28;20560;-73
2022/08/31 05:36:07;;;;;;;4.07;1.77;;;26.50;99.90;;;;;;5062346;28;20206;-73
2022/08/31 05:38:34;;;;;;;2.03;1.30;;;26.90;99.90;;;;;;5065775;28;20238;-73
2022/08/31 05:40:59;;;;;;;3.20;1.48;;;27.00;99.90;;;;;;5048353;28;20290;-73
2022/08/31 05:43:26;;;;;;;3.17;1.50;;;27.40;99.90;;;;;;5063785;28;20387;-71
2022/08/31 05:45:53;;;;;;;4.72;1.77;;;28.00;99.90;;;;;;5060643;28;20226;-72
2022/08/31 05:48:19;;;;;;;2.47;1.58;;;28.40;99.90;;;;;;5060654;28;20543;-71
2022/08/31 05:50:45;;;;;;;4.43;1.98;;;28.40;99.90;;;;;;5057448;28;20175;-72
2022/08/31 05:53:10;;;;;;;3.92;1.77;;;28.70;99.90;;;;;;5058298;28;20219;-73
2022/08/31 05:55:36;;;;;;;4.10;1.70;;;27.80;99.90;;;;;;5061951;28;20293;-70
2022/08/31 05:58:01;;;;;;;3.88;1.48;;;28.10;99.90;;;;;;5059408;28;20561;-71
2022/08/31 06:00:27;;;;;;;4.65;1.50;;;27.50;99.90;;;;;;5063000;28;20168;-72
2022/08/31 06:02:53;;;;;;;3.53;1.70;;;27.50;99.90;;;;;;5061755;28;20180;-73
2022/08/31 06:05:18;;;;;;;2.35;1.42;;;27.40;99.90;;;;;;5061032;28;20248;-72
2022/08/31 06:07:46;;;;;;;5.05;1.33;;;26.90;99.90;;;;;;5064345;28;20218;-70
2022/08/31 06:10:13;;;;;;;2.35;1.23;;;25.50;99.90;;;;;;5058399;28;20207;-72
2022/08/31 06:12:41;;;;;;;2.88;1.13;;;26.20;99.90;;;;;;5063475;28;20291;-71
2022/08/31 06:15:07;;;;;;;3.28;1.45;;;25.40;99.90;;;;;;5062055;28;20282;-71
2022/08/31 06:17:34;;;;;;;3.03;1.75;;;25.50;99.90;;;;;;5064259;28;20222;-72
2022/08/31 06:20:00;;;;;;;2.28;1.23;;;25.30;99.90;;;;;;5060274;28;20277;-72
2022/08/31 06:22:26;;;;;;;2.20;1.23;;;26.40;99.90;;;;;;5060312;28;20579;-71
2022/08/31 06:24:52;;;;;;;2.10;1.10;;;26.10;99.90;;;;;;5062787;28;20222;-72
2022/08/31 06:27:18;;;;;;;3.85;1.60;;;26.40;99.90;;;;;;5058017;28;20539;-73
2022/08/31 06:29:44;;;;;;;6.13;1.45;;;26.90;99.90;;;;;;5061166;28;20633;-73
2022/08/31 06:32:14;;;;;;;4.05;1.67;;;26.60;99.90;;;;;;5059600;28;20204;-72
2022/08/31 06:34:41;;;;;;;3.63;1.20;;;27.70;99.90;;;;;;5062385;28;20234;-71
2022/08/31 06:37:08;;;;;;;5.60;1.50;;;28.00;99.90;;;;;;5062710;28;20629;-72
2022/08/31 06:39:34;;;;;;;1.75;0.88;;;28.60;99.90;;;;;;5055917;28;20177;-71
2022/08/31 06:42:00;;;;;;;3.20;1.63;;;28.80;99.90;;;;;;5060219;28;20524;-72
2022/08/31 06:44:25;;;;;;;3.00;1.17;;;27.80;99.90;;;;;;5061199;28;20206;-71
2022/08/31 06:46:52;;;;;;;3.92;1.08;;;26.20;99.90;;;;;;5059067;28;20250;-71
2022/08/31 06:49:19;;;;;;;1.70;1.42;;;25.80;99.90;;;;;;5057924;28;20219;-72
2022/08/31 06:51:44;;;;;;;6.35;1.92;;;26.40;99.90;;;;;;5060307;28;20210;-73
2022/08/31 06:54:13;;;;;;;3.30;1.73;;;27.10;99.90;;;;;;5061173;28;20192;-72
2022/08/31 06:56:39;;;;;;;2.65;1.30;;;26.60;99.90;;;;;;5061286;28;20286;-71
2022/08/31 06:59:06;;;;;;;2.92;1.40;;;25.70;99.90;;;;;;5055304;28;20683;-72
2022/08/31 07:01:35;;;;;;;1.80;1.27;;;26.40;99.90;;;;;;5062940;28;20206;-72
2022/08/31 07:04:03;;;;;;;1.35;1.20;;;25.70;99.90;;;;;;5057422;28;20203;-72
2022/08/31 07:06:34;;;;;;;3.42;1.20;;;25.70;99.90;;;;;;5058487;28;20203;-72
2022/08/31 07:09:02;;;;;;;3.45;1.35;;;25.70;99.90;;;;;;5057116;28;20266;-73
2022/08/31 07:11:37;;;;;;;7.40;1.20;;;27.00;99.90;;;;;;5060565;28;20203;-72
2022/08/31 07:14:05;;;;;;;1.70;1.05;;;27.20;99.90;;;;;;5059696;28;20199;-72
2022/08/31 07:16:31;;;;;;;2.88;1.30;;;28.50;99.90;;;;;;5060088;28;20283;-72
2022/08/31 07:19:02;;;;;;;2.80;0.85;;;28.50;99.80;;;;;;5058602;28;20243;-72
2022/08/31 07:21:41;;;;;;;2.00;1.10;;;27.50;99.90;;;;;;5057827;28;20523;-72
2022/08/31 07:24:09;;;;;;;1.83;1.05;;;28.20;99.80;;;;;;5059262;28;20714;-72
2022/08/31 07:26:36;;;;;;;2.72;1.00;;;27.90;99.70;;;;;;5061050;28;20289;-72
2022/08/31 07:29:05;;;;;;;4.43;1.13;;;28.20;99.30;;;;;;5057832;28;20670;-72
2022/08/31 07:31:47;;;;;;;3.67;1.13;;;28.40;98.90;;;;;;5057880;28;20212;-72
2022/08/31 07:34:19;;;;;;;2.55;1.30;;;28.70;98.00;;;;;;5058734;28;20215;-71
2022/08/31 07:42:22;;;;;;;2.65;0.95;;;27.70;97.00;;;;;;5058988;28;20187;-71
2022/08/31 07:44:49;;;;;;;2.70;2.00;;;27.60;96.60;;;;;;5061369;28;20281;-71
2022/08/31 07:47:18;;;;;;;1.75;1.35;;;26.10;99.40;;;;;;5061206;28;20667;-71
2022/08/31 07:49:50;;;;;;;3.88;1.50;;;26.20;99.50;;;;;;5058727;28;20745;-71
2022/08/31 07:52:26;;;;;;;2.47;1.55;;;26.70;99.90;;;;;;5056739;28;20203;-71
2022/08/31 07:54:55;;;;;;;2.58;0.90;;;27.70;98.50;;;;;;5059601;28;20643;-71
2022/08/31 07:57:24;;;;;;;2.20;1.40;;;28.60;96.60;;;;;;5058747;28;20668;-71
2022/08/31 08:00:07;;;;;;;2.08;0.85;;;28.20;95.70;;;;;;5061706;28;20645;-71
2022/08/31 08:02:37;;;;;;;2.92;1.90;;;28.80;94.60;;;;;;5055305;28;20199;-72
2022/08/31 08:05:07;;;;;;;1.27;1.05;;;29.50;93.90;;;;;;5058207;28;20214;-72
2022/08/31 08:07:34;;;;;;;2.53;1.60;;;30.30;92.20;;;;;;5070245;23;20280;-69
2022/08/31 08:10:03;;;;;;;1.85;1.10;;;29.90;92.10;;;;;;5046034;28;20219;-70
2022/08/31 08:12:35;;;;;;;2.28;1.70;;;30.40;91.80;;;;;;5035692;28;20221;-70
2022/08/31 08:15:03;;;;;;;2.13;1.15;;;28.80;91.40;;;;;;5030852;28;20627;-70
2022/08/31 08:17:28;;;;;;;1.88;0.90;;;28.00;93.40;;;;;;5034035;28;20204;-70
2022/08/31 08:19:54;;;;;;;3.17;2.25;;;27.60;94.60;;;;;;5037430;28;20394;-70
2022/08/31 08:22:19;;;;;;;2.40;1.58;;;27.70;96.20;;;;;;5050359;28;20256;-70
2022/08/31 08:24:46;;;;;;;2.15;1.00;;;26.90;96.70;;;;;;5058182;28;20717;-70
2022/08/31 08:27:12;;;;;;;3.03;1.10;;;27.80;96.60;;;;;;5059417;28;20241;-70
2022/08/31 08:29:39;;;;;;;1.58;0.77;;;27.70;96.60;;;;;;5060841;28;20583;-70
2022/08/31 08:32:07;;;;;;;2.03;0.90;;;27.60;96.90;;;;;;5056665;28;20207;-70
2022/08/31 08:34:33;;;;;;;2.33;1.58;;;27.60;96.90;;;;;;5061258;28;20200;-70
2022/08/31 08:37:00;;;;;;;5.28;1.70;;;28.70;96.70;;;;;;5058271;28;20314;-71
2022/08/31 08:39:26;;;;;;;2.10;1.00;;;29.20;94.50;;;;;;5050773;28;20176;-71
2022/08/31 08:41:55;;;;;;;2.22;1.45;;;29.40;93.60;;;;;;5061003;28;20183;-70
2022/08/31 08:44:25;;;;;;;2.80;1.20;;;29.10;94.50;;;;;;5061485;28;20207;-72
2022/08/31 08:46:54;;;;;;;1.48;1.10;;;28.40;93.90;;;;;;5061061;28;20638;-70
2022/08/31 08:49:48;;;;;;;1.05;0.88;;;28.50;94.60;;;;;;5057348;28;20783;-70
2022/08/31 08:52:23;;;;;;;6.82;2.80;;;27.50;95.40;;;;;;5040679;28;20693;-69
2022/08/31 08:54:52;;;;;;;2.28;1.15;;;26.80;98.40;;;;;;5032262;28;20241;-70
2022/08/31 08:57:30;;;;;;;1.95;0.85;;;25.10;99.90;;;;;;5040820;28;20192;-70
2022/08/31 08:59:59;;;;;;;7.22;1.92;;;24.10;99.90;;;;;;5038734;28;20183;-70
2022/08/31 09:02:34;;;;;;;7.60;2.28;;;24.30;99.90;;;;;;5044579;28;20208;-70
2022/08/31 09:05:23;;;;;;;4.30;0.80;;;23.80;99.90;;;;;;5022594;28;20212;-70
2022/08/31 09:08:15;;;;;;;1.38;0.73;;;23.20;99.90;;;;;;5037354;28;20235;-70
2022/08/31 09:11:08;;;;;;;1.48;0.70;;;23.70;99.90;;;;;;5037293;28;20286;-70
2022/08/31 09:13:40;;;;;;;1.80;0.93;;;23.50;99.90;;;;;;5041668;28;20212;-70
2022/08/31 09:16:27;;;;;;;2.90;1.30;;;24.20;99.90;;;;;;5037979;28;20212;-70
2022/08/31 09:19:00;;;;;;;5.43;2.22;;;23.70;99.90;;;;;;5040897;28;20207;-70
2022/08/31 09:21:33;;;;;;;1.80;1.08;;;23.70;99.90;;;;;;5045352;28;20234;-70
2022/08/31 09:24:11;;;;;;;1.58;0.85;;;24.30;99.90;;;;;;5042138;28;20641;-70
2022/08/31 09:27:19;;;;;;;5.00;1.63;;;24.60;99.90;;;;;;5045157;28;20211;-70
2022/08/31 09:30:06;;;;;;;3.78;1.77;;;25.50;99.90;;;;;;5042473;28;20212;-70
2022/08/31 09:32:34;;;;;;;1.65;1.27;;;24.30;99.90;;;;;;5043286;28;20208;-70
2022/08/31 09:35:04;;;;;;;1.27;0.93;;;24.50;99.90;;;;;;5042202;28;20208;-70
2022/08/31 09:37:36;;;;;;;2.53;0.90;;;24.90;99.90;;;;;;5043621;28;20214;-71
2022/08/31 09:40:34;;;;;;;2.05;0.95;;;25.60;99.90;;;;;;5034239;28;20209;-70
2022/08/31 09:43:23;;;;;;;2.35;0.90;;;24.70;99.90;;;;;;5038921;28;20219;-70
2022/08/31 09:46:02;;;;;;;2.05;1.23;;;25.10;99.90;;;;;;5040083;28;20298;-71
2022/08/31 09:48:42;;;;;;;2.25;1.23;;;24.90;99.90;;;;;;5038363;28;20221;-70
2022/08/31 09:51:09;;;;;;;2.08;1.42;;;24.40;99.90;;;;;;5041358;28;20262;-70
2022/08/31 09:56:26;;;;;;;2.83;1.20;;;24.70;99.90;;;;;;5043386;28;21018;-70
2022/08/31 09:58:56;;;;;;;1.38;1.27;;;24.80;99.90;;;;;;5041070;28;20207;-71
2022/08/31 10:01:33;;;;;;;1.15;0.82;;;25.40;99.90;;;;;;5040018;28;20235;-70
2022/08/31 10:04:18;;;;;;;3.38;1.73;;;26.10;99.90;;;;;;5036656;28;20268;-70
2022/08/31 10:06:48;;;;;;;2.20;1.48;;;25.70;99.90;;;;;;5035587;28;20699;-69
2022/08/31 10:09:27;;;;;;;1.83;1.10;;;24.80;99.90;;;;;;5038229;28;20173;-69
2022/08/31 10:11:56;;;;;;;1.33;0.70;;;24.80;99.90;;;;;;5040472;28;20296;-70
2022/08/31 10:14:50;;;;;;;1.25;1.02;;;25.40;99.90;;;;;;5040377;28;20346;-70
2022/08/31 10:17:30;;;;;;;1.55;0.90;;;25.40;99.90;;;;;;5038856;28;20693;-72
2022/08/31 10:20:05;;;;;;;1.48;0.88;;;25.50;99.90;;;;;;5039937;28;20731;-71
2022/08/31 10:23:13;;;;;;;1.38;1.25;;;25.90;99.90;;;;;;5033238;28;20220;-69
2022/08/31 10:25:45;;;;;;;2.08;1.20;;;25.20;99.30;;;;;;5000955;28;20216;-68
2022/08/31 10:28:17;;;;;;;2.05;1.17;;;25.20;99.60;;;;;;5035112;28;20208;-68
2022/08/31 10:30:47;;;;;;;2.17;0.95;;;25.10;99.90;;;;;;5042670;28;20331;-68
2022/08/31 10:33:18;;;;;;;1.67;0.93;;;25.30;99.90;;;;;;5036366;28;20192;-68
2022/08/31 10:35:56;;;;;;;1.67;1.00;;;25.50;99.90;;;;;;5037427;28;20208;-69
2022/08/31 10:38:38;;;;;;;2.08;1.20;;;25.30;99.90;;;;;;5041291;28;20298;-71
2022/08/31 10:41:12;;;;;;;3.83;1.58;;;25.00;99.90;;;;;;5030308;28;20674;-69
2022/08/31 10:44:00;;;;;;;2.60;1.20;;;24.80;99.90;;;;;;5047488;28;20220;-69
2022/08/31 10:46:27;;;;;;;1.23;0.80;;;25.20;99.90;;;;;;5049287;28;21078;-70
2022/08/31 10:48:55;;;;;;;3.15;0.70;;;25.30;99.90;;;;;;5040859;28;20222;-69
2022/08/31 10:52:08;;;;;;;1.13;0.95;;;25.00;99.90;;;;;;5038693;28;20181;-70
2022/08/31 10:54:53;;;;;;;1.20;0.70;;;25.20;99.90;;;;;;5009545;28;20212;-70
2022/08/31 10:57:22;;;;;;;3.08;1.13;;;24.40;99.90;;;;;;5001954;28;20192;-70
2022/08/31 11:00:40;;;;;;;1.95;0.82;;;24.60;99.90;;;;;;5032337;28;20184;-70
2022/08/31 11:03:12;;;;;;;0.85;0.70;;;25.10;99.60;;;;;;5040285;28;20215;-70
2022/08/31 11:05:52;;;;;;;1.98;1.13;;;25.30;99.50;;;;;;5058099;28;20211;-68
2022/08/31 11:08:52;;;;;;;3.42;1.55;;;24.70;99.50;;;;;;5056567;28;20207;-70
2022/08/31 11:11:30;;;;;;;2.00;1.63;;;24.00;99.90;;;;;;5042019;28;20565;-69
2022/08/31 11:14:25;;;;;;;3.65;0.88;;;23.60;99.90;;;;;;5056029;28;20291;-69
2022/08/31 11:16:54;;;;;;;2.50;1.00;;;23.50;99.90;;;;;;5053981;28;20207;-69
2022/08/31 11:19:48;;;;;;;2.33;1.40;;;23.90;99.90;;;;;;5053104;28;20208;-69
2022/08/31 11:22:36;;;;;;;1.55;0.90;;;24.00;99.90;;;;;;5060493;28;20195;-69
2022/08/31 11:25:27;;;;;;;1.27;0.80;;;24.00;99.90;;;;;;5055140;28;20219;-69
2022/08/31 11:27:53;;;;;;;2.03;0.90;;;23.90;99.90;;;;;;5057032;28;20932;-69
2022/08/31 11:30:22;;;;;;;2.13;0.95;;;23.80;99.90;;;;;;5061741;28;20258;-69
2022/08/31 11:32:54;;;;;;;2.67;1.13;;;24.00;99.90;;;;;;5055106;28;20177;-69
2022/08/31 11:36:02;;;;;;;4.90;1.48;;;24.10;99.90;;;;;;5058014;28;20847;-68
2022/08/31 11:38:46;;;;;;;1.38;1.13;;;23.90;99.90;;;;;;5056549;28;20216;-69
2022/08/31 11:41:50;;;;;;;2.35;1.10;;;23.70;99.90;;;;;;5050763;28;20208;-71
2022/08/31 11:44:28;;;;;;;2.70;1.50;;;24.10;99.90;;;;;;5058351;28;20203;-73
2022/08/31 11:47:05;;;;;;;2.50;0.70;;;24.40;99.90;;;;;;5057527;28;20219;-69
2022/08/31 11:49:44;;;;;;;1.52;0.73;;;25.00;99.90;;;;;;5057780;28;20630;-70
2022/08/31 11:52:28;;;;;;;1.65;0.70;;;24.90;99.90;;;;;;5056096;28;20603;-69
2022/08/31 11:55:44;;;;;;;3.47;1.20;;;24.50;99.90;;;;;;5054193;28;20288;-69
2022/08/31 11:58:16;;;;;;;1.25;0.70;;;23.90;99.90;;;;;;5048586;28;20215;-70
2022/08/31 12:00:44;;;;;;;1.77;0.70;;;24.00;99.90;;;;;;5056640;28;20210;-71
2022/08/31 12:03:29;;;;;;;2.53;1.02;;;23.70;99.90;;;;;;5058714;28;20209;-72
2022/08/31 12:05:56;;;;;;;1.60;0.80;;;23.50;99.90;;;;;;5055785;28;20571;-71
2022/08/31 12:08:26;;;;;;;1.10;0.80;;;23.70;99.90;;;;;;5059388;28;20211;-71
2022/08/31 12:11:05;;;;;;;1.13;0.73;;;23.80;99.90;;;;;;5056768;28;20210;-72
2022/08/31 12:13:48;;;;;;;2.33;0.80;;;23.60;99.90;;;;;;5056738;28;20221;-72
2022/08/31 12:16:17;;;;;;;2.83;1.10;;;23.60;99.90;;;;;;5052032;28;20273;-71
2022/08/31 12:25:45;;;;;;;1.77;0.77;;;23.90;99.90;;;;;;5030759;28;20500;-71
2022/08/31 12:28:19;;;;;;;2.88;0.88;;;24.10;99.90;;;;;;5058336;28;20214;-72
2022/08/31 12:30:52;;;;;;;1.45;0.63;;;23.70;99.90;;;;;;5057927;28;20247;-71
2022/08/31 12:33:22;;;;;;;1.35;0.70;;;23.60;99.90;;;;;;5067790;28;20168;-72
2022/08/31 12:35:52;;;;;;;0.70;0.60;;;23.70;99.90;;;;;;5061058;28;20228;-71
2022/08/31 12:38:21;;;;;;;0.88;0.68;;;23.90;99.90;;;;;;5060172;28;20203;-72
2022/08/31 12:40:49;;;;;;;2.15;0.60;;;23.90;99.90;;;;;;5050073;28;20218;-72
2022/08/31 12:43:24;;;;;;;2.85;0.90;;;23.90;99.80;;;;;;5058502;28;20768;-73
2022/08/31 12:46:05;;;;;;;1.38;0.85;;;24.10;99.90;;;;;;5058651;28;20233;-72
2022/08/31 12:48:49;;;;;;;1.27;0.80;;;24.50;99.80;;;;;;5056098;28;20211;-72
2022/08/31 12:51:45;;;;;;;2.78;0.90;;;24.50;99.00;;;;;;5058125;28;20176;-72
2022/08/31 12:54:41;;;;;;;3.85;0.80;;;24.00;98.80;;;;;;5059151;28;20295;-72
2022/08/31 12:57:42;;;;;;;1.42;0.80;;;24.00;99.90;;;;;;5056888;28;20695;-72
2022/08/31 13:00:25;;;;;;;2.28;1.00;;;24.30;99.90;;;;;;5058221;28;20238;-72
2022/08/31 13:02:55;;;;;;;1.08;0.77;;;24.10;98.70;;;;;;5059039;28;20212;-72
2022/08/31 13:05:33;;;;;;;1.55;0.85;;;23.70;98.90;;;;;;5061090;28;20217;-72
2022/08/31 13:07:59;;;;;;;2.88;1.00;;;23.70;98.70;;;;;;5055359;28;20692;-72
2022/08/31 13:10:33;;;;;;;2.08;1.00;;;23.60;99.10;;;;;;5057282;28;20222;-72
2022/08/31 13:13:08;;;;;;;1.50;1.00;;;23.50;98.20;;;;;;5039549;28;20237;-71
2022/08/31 13:15:37;;;;;;;1.42;0.75;;;23.10;98.10;;;;;;5053839;28;20213;-72
2022/08/31 13:18:09;;;;;;;2.40;0.82;;;23.10;98.70;;;;;;5055523;28;20195;-72
2022/08/31 13:20:42;;;;;;;2.35;1.15;;;23.10;98.70;;;;;;5053298;28;20211;-72
2022/08/31 13:23:15;;;;;;;1.67;1.17;;;22.90;98.90;;;;;;5057941;28;20207;-72
2022/08/31 13:25:42;;;;;;;1.20;1.02;;;22.90;99.30;;;;;;5061606;28;20218;-72
2022/08/31 13:28:12;;;;;;;1.50;0.70;;;23.00;99.60;;;;;;5059576;28;20839;-72
2022/08/31 13:30:40;;;;;;;1.40;0.88;;;23.00;98.90;;;;;;5063338;28;20213;-72